sensor_id;sensor_type;location;lat;lon;timestamp;P1;durP1;ratioP1;P2;durP2;ratioP2
19016;SDS011;9641;51.494;6.670;2023-09-12T00:01:23;26.52;;;15.18;;
19016;SDS011;9641;51.494;6.670;2023-09-12T00:03:50;18.27;;;11.98;;
19016;SDS011;9641;51.494;6.670;2023-09-12T00:06:17;17.42;;;11.82;;
19016;SDS011;9641;51.494;6.670;2023-09-12T00:08:44;18.65;;;12.82;;
19016;SDS011;9641;51.494;6.670;2023-09-12T00:11:10;20.85;;;12.80;;
19016;SDS011;9641;51.494;6.670;2023-09-12T00:13:38;19.00;;;11.68;;
19016;SDS011;9641;51.494;6.670;2023-09-12T00:16:07;20.60;;;12.68;;
19016;SDS011;9641;51.494;6.670;2023-09-12T00:18:35;24.08;;;14.80;;
19016;SDS011;9641;51.494;6.670;2023-09-12T00:21:02;26.83;;;15.93;;
19016;SDS011;9641;51.494;6.670;2023-09-12T00:23:30;45.72;;;21.17;;
19016;SDS011;9641;51.494;6.670;2023-09-12T00:25:56;34.45;;;20.02;;
19016;SDS011;9641;51.494;6.670;2023-09-12T00:28:24;27.75;;;17.88;;
19016;SDS011;9641;51.494;6.670;2023-09-12T00:30:51;33.95;;;19.77;;
19016;SDS011;9641;51.494;6.670;2023-09-12T00:33:19;35.47;;;21.02;;
19016;SDS011;9641;51.494;6.670;2023-09-12T00:35:46;35.15;;;20.38;;
19016;SDS011;9641;51.494;6.670;2023-09-12T00:38:13;31.20;;;19.52;;
19016;SDS011;9641;51.494;6.670;2023-09-12T00:40:40;31.60;;;18.80;;
19016;SDS011;9641;51.494;6.670;2023-09-12T00:43:06;30.02;;;18.58;;
19016;SDS011;9641;51.494;6.670;2023-09-12T00:45:34;29.50;;;19.25;;
19016;SDS011;9641;51.494;6.670;2023-09-12T00:48:01;26.98;;;16.23;;
19016;SDS011;9641;51.494;6.670;2023-09-12T00:50:32;26.35;;;17.00;;
19016;SDS011;9641;51.494;6.670;2023-09-12T00:52:59;22.38;;;15.50;;
19016;SDS011;9641;51.494;6.670;2023-09-12T00:55:29;26.35;;;15.10;;
19016;SDS011;9641;51.494;6.670;2023-09-12T00:57:57;19.33;;;13.40;;
19016;SDS011;9641;51.494;6.670;2023-09-12T01:00:24;18.13;;;13.10;;
19016;SDS011;9641;51.494;6.670;2023-09-12T01:02:51;17.95;;;13.05;;
19016;SDS011;9641;51.494;6.670;2023-09-12T01:05:19;21.35;;;13.93;;
19016;SDS011;9641;51.494;6.670;2023-09-12T01:07:50;21.65;;;13.88;;
19016;SDS011;9641;51.494;6.670;2023-09-12T01:10:17;21.40;;;16.00;;
19016;SDS011;9641;51.494;6.670;2023-09-12T01:12:45;24.60;;;16.33;;
19016;SDS011;9641;51.494;6.670;2023-09-12T01:15:11;18.25;;;13.85;;
19016;SDS011;9641;51.494;6.670;2023-09-12T01:17:40;22.20;;;13.73;;
19016;SDS011;9641;51.494;6.670;2023-09-12T01:20:08;18.85;;;13.23;;
19016;SDS011;9641;51.494;6.670;2023-09-12T01:25:42;21.35;;;14.68;;
19016;SDS011;9641;51.494;6.670;2023-09-12T01:28:24;19.80;;;12.55;;
19016;SDS011;9641;51.494;6.670;2023-09-12T01:30:56;20.48;;;15.20;;
19016;SDS011;9641;51.494;6.670;2023-09-12T01:33:26;19.08;;;13.50;;
19016;SDS011;9641;51.494;6.670;2023-09-12T01:35:53;18.52;;;13.70;;
19016;SDS011;9641;51.494;6.670;2023-09-12T01:38:20;25.25;;;14.80;;
19016;SDS011;9641;51.494;6.670;2023-09-12T01:40:48;24.45;;;14.68;;
19016;SDS011;9641;51.494;6.670;2023-09-12T01:43:17;23.77;;;15.55;;
19016;SDS011;9641;51.494;6.670;2023-09-12T01:45:49;23.52;;;13.80;;
19016;SDS011;9641;51.494;6.670;2023-09-12T01:48:20;33.05;;;14.70;;
19016;SDS011;9641;51.494;6.670;2023-09-12T01:50:49;25.35;;;14.45;;
19016;SDS011;9641;51.494;6.670;2023-09-12T01:53:16;18.05;;;11.50;;
19016;SDS011;9641;51.494;6.670;2023-09-12T01:55:44;17.52;;;11.32;;
19016;SDS011;9641;51.494;6.670;2023-09-12T01:58:12;13.38;;;10.13;;
19016;SDS011;9641;51.494;6.670;2023-09-12T02:00:40;13.45;;;10.15;;
19016;SDS011;9641;51.494;6.670;2023-09-12T02:03:08;16.88;;;10.95;;
19016;SDS011;9641;51.494;6.670;2023-09-12T02:05:35;18.20;;;11.73;;
19016;SDS011;9641;51.494;6.670;2023-09-12T02:08:03;23.50;;;12.98;;
19016;SDS011;9641;51.494;6.670;2023-09-12T02:10:30;16.10;;;10.73;;
19016;SDS011;9641;51.494;6.670;2023-09-12T02:12:57;17.05;;;11.95;;
19016;SDS011;9641;51.494;6.670;2023-09-12T02:15:24;18.92;;;12.30;;
19016;SDS011;9641;51.494;6.670;2023-09-12T02:17:51;18.42;;;11.52;;
19016;SDS011;9641;51.494;6.670;2023-09-12T02:20:20;27.05;;;11.70;;
19016;SDS011;9641;51.494;6.670;2023-09-12T02:22:46;18.23;;;12.15;;
19016;SDS011;9641;51.494;6.670;2023-09-12T02:25:13;16.27;;;11.73;;
19016;SDS011;9641;51.494;6.670;2023-09-12T02:27:40;18.00;;;11.77;;
19016;SDS011;9641;51.494;6.670;2023-09-12T02:30:07;15.65;;;11.30;;
19016;SDS011;9641;51.494;6.670;2023-09-12T02:32:34;19.98;;;11.95;;
19016;SDS011;9641;51.494;6.670;2023-09-12T02:35:01;21.17;;;12.25;;
19016;SDS011;9641;51.494;6.670;2023-09-12T02:37:30;13.77;;;9.80;;
19016;SDS011;9641;51.494;6.670;2023-09-12T02:39:57;18.90;;;11.27;;
19016;SDS011;9641;51.494;6.670;2023-09-12T02:42:24;14.50;;;10.32;;
19016;SDS011;9641;51.494;6.670;2023-09-12T02:44:50;14.95;;;9.98;;
19016;SDS011;9641;51.494;6.670;2023-09-12T02:47:18;17.08;;;11.15;;
19016;SDS011;9641;51.494;6.670;2023-09-12T02:49:45;12.55;;;9.40;;
19016;SDS011;9641;51.494;6.670;2023-09-12T02:52:12;15.60;;;10.07;;
19016;SDS011;9641;51.494;6.670;2023-09-12T02:54:40;12.60;;;9.70;;
19016;SDS011;9641;51.494;6.670;2023-09-12T02:57:07;12.48;;;8.65;;
19016;SDS011;9641;51.494;6.670;2023-09-12T02:59:34;12.25;;;9.55;;
19016;SDS011;9641;51.494;6.670;2023-09-12T03:02:02;25.27;;;10.80;;
19016;SDS011;9641;51.494;6.670;2023-09-12T03:04:29;14.85;;;9.30;;
19016;SDS011;9641;51.494;6.670;2023-09-12T03:06:56;14.10;;;9.63;;
19016;SDS011;9641;51.494;6.670;2023-09-12T03:09:23;15.90;;;10.30;;
19016;SDS011;9641;51.494;6.670;2023-09-12T03:11:51;13.80;;;9.23;;
19016;SDS011;9641;51.494;6.670;2023-09-12T03:14:18;13.98;;;9.80;;
19016;SDS011;9641;51.494;6.670;2023-09-12T03:16:45;11.63;;;9.25;;
19016;SDS011;9641;51.494;6.670;2023-09-12T03:19:12;11.73;;;9.50;;
19016;SDS011;9641;51.494;6.670;2023-09-12T03:21:39;16.42;;;8.60;;
19016;SDS011;9641;51.494;6.670;2023-09-12T03:24:06;13.50;;;9.43;;
19016;SDS011;9641;51.494;6.670;2023-09-12T03:26:34;14.50;;;9.30;;
19016;SDS011;9641;51.494;6.670;2023-09-12T03:29:03;11.63;;;8.45;;
19016;SDS011;9641;51.494;6.670;2023-09-12T03:31:31;15.95;;;9.18;;
19016;SDS011;9641;51.494;6.670;2023-09-12T03:33:58;12.85;;;8.95;;
19016;SDS011;9641;51.494;6.670;2023-09-12T03:36:25;12.13;;;9.05;;
19016;SDS011;9641;51.494;6.670;2023-09-12T03:38:52;12.98;;;8.90;;
19016;SDS011;9641;51.494;6.670;2023-09-12T03:41:19;11.32;;;8.93;;
19016;SDS011;9641;51.494;6.670;2023-09-12T03:43:50;15.43;;;10.52;;
19016;SDS011;9641;51.494;6.670;2023-09-12T03:46:20;11.43;;;9.43;;
19016;SDS011;9641;51.494;6.670;2023-09-12T03:48:47;12.00;;;8.02;;
19016;SDS011;9641;51.494;6.670;2023-09-12T03:51:14;10.85;;;8.82;;
19016;SDS011;9641;51.494;6.670;2023-09-12T03:53:41;10.05;;;9.05;;
19016;SDS011;9641;51.494;6.670;2023-09-12T03:56:08;11.77;;;8.30;;
19016;SDS011;9641;51.494;6.670;2023-09-12T03:58:37;10.90;;;9.23;;
19016;SDS011;9641;51.494;6.670;2023-09-12T04:01:05;12.00;;;9.88;;
19016;SDS011;9641;51.494;6.670;2023-09-12T04:03:34;13.75;;;10.85;;
19016;SDS011;9641;51.494;6.670;2023-09-12T04:06:01;13.70;;;10.23;;
19016;SDS011;9641;51.494;6.670;2023-09-12T04:08:28;16.35;;;10.48;;
19016;SDS011;9641;51.494;6.670;2023-09-12T04:10:57;14.65;;;10.90;;
19016;SDS011;9641;51.494;6.670;2023-09-12T04:13:24;18.15;;;10.95;;
19016;SDS011;9641;51.494;6.670;2023-09-12T04:15:51;15.73;;;10.55;;
19016;SDS011;9641;51.494;6.670;2023-09-12T04:18:18;14.50;;;10.05;;
19016;SDS011;9641;51.494;6.670;2023-09-12T04:20:46;18.33;;;12.43;;
19016;SDS011;9641;51.494;6.670;2023-09-12T04:23:13;17.27;;;12.35;;
19016;SDS011;9641;51.494;6.670;2023-09-12T04:25:41;13.38;;;10.80;;
19016;SDS011;9641;51.494;6.670;2023-09-12T04:28:10;14.40;;;10.48;;
19016;SDS011;9641;51.494;6.670;2023-09-12T04:30:37;10.77;;;9.07;;
19016;SDS011;9641;51.494;6.670;2023-09-12T04:33:05;13.05;;;10.07;;
19016;SDS011;9641;51.494;6.670;2023-09-12T04:35:32;15.35;;;9.65;;
19016;SDS011;9641;51.494;6.670;2023-09-12T04:38:02;16.05;;;10.63;;
19016;SDS011;9641;51.494;6.670;2023-09-12T04:40:29;11.02;;;9.90;;
19016;SDS011;9641;51.494;6.670;2023-09-12T04:42:56;16.92;;;12.13;;
19016;SDS011;9641;51.494;6.670;2023-09-12T04:45:23;18.38;;;12.48;;
19016;SDS011;9641;51.494;6.670;2023-09-12T04:47:50;20.63;;;13.52;;
19016;SDS011;9641;51.494;6.670;2023-09-12T04:50:17;22.30;;;14.68;;
19016;SDS011;9641;51.494;6.670;2023-09-12T04:52:44;17.02;;;13.50;;
19016;SDS011;9641;51.494;6.670;2023-09-12T04:55:12;24.92;;;14.82;;
19016;SDS011;9641;51.494;6.670;2023-09-12T04:57:39;21.40;;;13.38;;
19016;SDS011;9641;51.494;6.670;2023-09-12T05:00:06;20.27;;;14.95;;
19016;SDS011;9641;51.494;6.670;2023-09-12T05:02:36;25.00;;;15.18;;
19016;SDS011;9641;51.494;6.670;2023-09-12T05:05:03;20.00;;;14.55;;
19016;SDS011;9641;51.494;6.670;2023-09-12T05:07:30;19.90;;;13.25;;
19016;SDS011;9641;51.494;6.670;2023-09-12T05:09:57;21.25;;;15.15;;
19016;SDS011;9641;51.494;6.670;2023-09-12T05:12:26;30.65;;;17.58;;
19016;SDS011;9641;51.494;6.670;2023-09-12T05:14:53;25.33;;;17.70;;
19016;SDS011;9641;51.494;6.670;2023-09-12T05:17:20;29.33;;;20.17;;
19016;SDS011;9641;51.494;6.670;2023-09-12T05:19:47;28.27;;;17.45;;
19016;SDS011;9641;51.494;6.670;2023-09-12T05:22:15;26.40;;;18.00;;
19016;SDS011;9641;51.494;6.670;2023-09-12T05:24:42;27.73;;;18.77;;
19016;SDS011;9641;51.494;6.670;2023-09-12T05:27:09;28.90;;;18.35;;
19016;SDS011;9641;51.494;6.670;2023-09-12T05:29:38;26.83;;;16.65;;
19016;SDS011;9641;51.494;6.670;2023-09-12T05:32:05;25.95;;;16.73;;
19016;SDS011;9641;51.494;6.670;2023-09-12T05:34:32;29.75;;;19.27;;
19016;SDS011;9641;51.494;6.670;2023-09-12T05:36:59;27.40;;;18.88;;
19016;SDS011;9641;51.494;6.670;2023-09-12T05:39:26;28.40;;;19.42;;
19016;SDS011;9641;51.494;6.670;2023-09-12T05:41:53;29.73;;;19.45;;
19016;SDS011;9641;51.494;6.670;2023-09-12T05:44:20;24.60;;;17.58;;
19016;SDS011;9641;51.494;6.670;2023-09-12T05:46:49;25.83;;;16.80;;
19016;SDS011;9641;51.494;6.670;2023-09-12T05:49:16;26.55;;;19.05;;
19016;SDS011;9641;51.494;6.670;2023-09-12T05:51:43;27.23;;;17.35;;
19016;SDS011;9641;51.494;6.670;2023-09-12T05:54:10;25.95;;;18.02;;
19016;SDS011;9641;51.494;6.670;2023-09-12T05:56:38;26.88;;;18.38;;
19016;SDS011;9641;51.494;6.670;2023-09-12T05:59:05;21.90;;;16.08;;
19016;SDS011;9641;51.494;6.670;2023-09-12T06:01:32;25.20;;;16.70;;
19016;SDS011;9641;51.494;6.670;2023-09-12T06:04:01;27.58;;;18.10;;
19016;SDS011;9641;51.494;6.670;2023-09-12T06:06:28;29.42;;;18.17;;
19016;SDS011;9641;51.494;6.670;2023-09-12T06:08:55;26.90;;;17.95;;
19016;SDS011;9641;51.494;6.670;2023-09-12T06:11:23;25.75;;;18.10;;
19016;SDS011;9641;51.494;6.670;2023-09-12T06:13:50;31.83;;;19.38;;
19016;SDS011;9641;51.494;6.670;2023-09-12T06:16:17;32.45;;;19.73;;
19016;SDS011;9641;51.494;6.670;2023-09-12T06:18:43;26.63;;;15.88;;
19016;SDS011;9641;51.494;6.670;2023-09-12T06:21:12;28.25;;;17.52;;
19016;SDS011;9641;51.494;6.670;2023-09-12T06:23:39;25.08;;;16.92;;
19016;SDS011;9641;51.494;6.670;2023-09-12T06:26:06;29.23;;;18.63;;
19016;SDS011;9641;51.494;6.670;2023-09-12T06:28:32;26.38;;;16.92;;
19016;SDS011;9641;51.494;6.670;2023-09-12T06:30:59;31.90;;;20.08;;
19016;SDS011;9641;51.494;6.670;2023-09-12T06:33:26;29.05;;;17.38;;
19016;SDS011;9641;51.494;6.670;2023-09-12T06:35:53;29.67;;;18.88;;
19016;SDS011;9641;51.494;6.670;2023-09-12T06:38:22;33.33;;;20.73;;
19016;SDS011;9641;51.494;6.670;2023-09-12T06:40:49;28.48;;;17.90;;
19016;SDS011;9641;51.494;6.670;2023-09-12T06:43:16;22.98;;;16.83;;
19016;SDS011;9641;51.494;6.670;2023-09-12T06:45:43;27.23;;;18.83;;
19016;SDS011;9641;51.494;6.670;2023-09-12T06:48:12;23.63;;;16.05;;
19016;SDS011;9641;51.494;6.670;2023-09-12T06:50:39;23.52;;;16.85;;
19016;SDS011;9641;51.494;6.670;2023-09-12T06:53:06;23.25;;;15.15;;
19016;SDS011;9641;51.494;6.670;2023-09-12T06:55:34;27.85;;;17.95;;
19016;SDS011;9641;51.494;6.670;2023-09-12T06:58:02;21.30;;;14.48;;
19016;SDS011;9641;51.494;6.670;2023-09-12T07:00:29;25.63;;;17.35;;
19016;SDS011;9641;51.494;6.670;2023-09-12T07:02:56;23.40;;;14.77;;
19016;SDS011;9641;51.494;6.670;2023-09-12T07:05:23;24.38;;;15.73;;
19016;SDS011;9641;51.494;6.670;2023-09-12T07:08:06;21.02;;;13.77;;
19016;SDS011;9641;51.494;6.670;2023-09-12T07:10:36;21.55;;;15.63;;
19016;SDS011;9641;51.494;6.670;2023-09-12T07:13:03;23.08;;;14.93;;
19016;SDS011;9641;51.494;6.670;2023-09-12T07:15:30;20.60;;;13.48;;
19016;SDS011;9641;51.494;6.670;2023-09-12T07:17:56;23.15;;;14.20;;
19016;SDS011;9641;51.494;6.670;2023-09-12T07:20:24;20.88;;;13.80;;
19016;SDS011;9641;51.494;6.670;2023-09-12T07:22:51;18.30;;;13.10;;
19016;SDS011;9641;51.494;6.670;2023-09-12T07:25:18;19.63;;;14.27;;
19016;SDS011;9641;51.494;6.670;2023-09-12T07:27:47;21.83;;;13.35;;
19016;SDS011;9641;51.494;6.670;2023-09-12T07:30:14;24.38;;;15.82;;
19016;SDS011;9641;51.494;6.670;2023-09-12T07:32:41;17.70;;;12.27;;
19016;SDS011;9641;51.494;6.670;2023-09-12T07:35:08;16.25;;;11.95;;
19016;SDS011;9641;51.494;6.670;2023-09-12T07:37:35;13.68;;;10.77;;
19016;SDS011;9641;51.494;6.670;2023-09-12T07:40:02;16.67;;;10.45;;
19016;SDS011;9641;51.494;6.670;2023-09-12T07:42:34;17.88;;;11.95;;
19016;SDS011;9641;51.494;6.670;2023-09-12T07:45:03;12.60;;;9.23;;
19016;SDS011;9641;51.494;6.670;2023-09-12T07:47:31;14.48;;;10.95;;
19016;SDS011;9641;51.494;6.670;2023-09-12T07:49:58;13.15;;;9.18;;
19016;SDS011;9641;51.494;6.670;2023-09-12T07:52:25;16.27;;;11.55;;
19016;SDS011;9641;51.494;6.670;2023-09-12T07:54:52;15.35;;;9.95;;
19016;SDS011;9641;51.494;6.670;2023-09-12T07:57:24;15.45;;;10.75;;
19016;SDS011;9641;51.494;6.670;2023-09-12T07:59:51;13.88;;;10.13;;
19016;SDS011;9641;51.494;6.670;2023-09-12T08:02:19;11.85;;;9.45;;
19016;SDS011;9641;51.494;6.670;2023-09-12T08:04:46;11.50;;;9.43;;
19016;SDS011;9641;51.494;6.670;2023-09-12T08:07:14;13.43;;;11.15;;
19016;SDS011;9641;51.494;6.670;2023-09-12T08:09:48;13.35;;;9.65;;
19016;SDS011;9641;51.494;6.670;2023-09-12T08:12:16;17.65;;;12.10;;
19016;SDS011;9641;51.494;6.670;2023-09-12T08:14:43;19.67;;;12.48;;
19016;SDS011;9641;51.494;6.670;2023-09-12T08:17:11;17.60;;;11.35;;
19016;SDS011;9641;51.494;6.670;2023-09-12T08:19:40;20.42;;;14.25;;
19016;SDS011;9641;51.494;6.670;2023-09-12T08:22:07;20.92;;;13.93;;
19016;SDS011;9641;51.494;6.670;2023-09-12T08:24:35;19.15;;;13.40;;
19016;SDS011;9641;51.494;6.670;2023-09-12T08:27:03;23.20;;;16.08;;
19016;SDS011;9641;51.494;6.670;2023-09-12T08:29:31;26.20;;;17.25;;
19016;SDS011;9641;51.494;6.670;2023-09-12T08:31:58;27.60;;;17.23;;
19016;SDS011;9641;51.494;6.670;2023-09-12T08:34:25;32.85;;;18.88;;
19016;SDS011;9641;51.494;6.670;2023-09-12T08:36:53;39.10;;;23.02;;
19016;SDS011;9641;51.494;6.670;2023-09-12T08:39:22;37.85;;;24.75;;
19016;SDS011;9641;51.494;6.670;2023-09-12T08:41:51;34.15;;;21.02;;
19016;SDS011;9641;51.494;6.670;2023-09-12T08:44:19;33.22;;;21.13;;
19016;SDS011;9641;51.494;6.670;2023-09-12T08:46:47;34.25;;;22.00;;
19016;SDS011;9641;51.494;6.670;2023-09-12T08:49:14;35.72;;;22.60;;
19016;SDS011;9641;51.494;6.670;2023-09-12T08:51:42;31.15;;;18.83;;
19016;SDS011;9641;51.494;6.670;2023-09-12T08:54:11;29.73;;;19.38;;
19016;SDS011;9641;51.494;6.670;2023-09-12T08:56:39;24.13;;;17.25;;
19016;SDS011;9641;51.494;6.670;2023-09-12T08:59:07;25.52;;;16.35;;
19016;SDS011;9641;51.494;6.670;2023-09-12T09:01:35;26.10;;;17.52;;
19016;SDS011;9641;51.494;6.670;2023-09-12T09:04:03;23.77;;;15.38;;
19016;SDS011;9641;51.494;6.670;2023-09-12T09:06:31;24.02;;;15.52;;
19016;SDS011;9641;51.494;6.670;2023-09-12T09:09:02;26.52;;;15.35;;
19016;SDS011;9641;51.494;6.670;2023-09-12T09:11:33;18.63;;;13.38;;
19016;SDS011;9641;51.494;6.670;2023-09-12T09:14:00;23.95;;;16.05;;
19016;SDS011;9641;51.494;6.670;2023-09-12T09:16:28;24.90;;;17.42;;
19016;SDS011;9641;51.494;6.670;2023-09-12T09:18:58;27.10;;;16.95;;
19016;SDS011;9641;51.494;6.670;2023-09-12T09:21:27;24.10;;;16.77;;
19016;SDS011;9641;51.494;6.670;2023-09-12T09:23:57;23.63;;;15.25;;
19016;SDS011;9641;51.494;6.670;2023-09-12T09:26:25;15.27;;;11.05;;
19016;SDS011;9641;51.494;6.670;2023-09-12T09:29:10;12.63;;;9.68;;
19016;SDS011;9641;51.494;6.670;2023-09-12T09:31:40;13.95;;;9.95;;
19016;SDS011;9641;51.494;6.670;2023-09-12T09:34:10;14.15;;;10.93;;
19016;SDS011;9641;51.494;6.670;2023-09-12T09:36:40;16.75;;;11.73;;
19016;SDS011;9641;51.494;6.670;2023-09-12T09:39:08;12.75;;;9.40;;
19016;SDS011;9641;51.494;6.670;2023-09-12T09:41:36;10.73;;;9.15;;
19016;SDS011;9641;51.494;6.670;2023-09-12T09:44:04;14.05;;;10.60;;
19016;SDS011;9641;51.494;6.670;2023-09-12T09:46:32;12.80;;;9.05;;
19016;SDS011;9641;51.494;6.670;2023-09-12T09:48:59;12.70;;;9.93;;
19016;SDS011;9641;51.494;6.670;2023-09-12T09:51:26;10.00;;;8.40;;
19016;SDS011;9641;51.494;6.670;2023-09-12T09:53:55;13.15;;;9.90;;
19016;SDS011;9641;51.494;6.670;2023-09-12T09:56:23;12.32;;;10.35;;
19016;SDS011;9641;51.494;6.670;2023-09-12T09:58:52;12.25;;;8.90;;
19016;SDS011;9641;51.494;6.670;2023-09-12T10:01:21;13.90;;;10.75;;
19016;SDS011;9641;51.494;6.670;2023-09-12T10:03:50;15.82;;;10.70;;
19016;SDS011;9641;51.494;6.670;2023-09-12T10:06:18;12.35;;;9.23;;
19016;SDS011;9641;51.494;6.670;2023-09-12T10:08:46;36.05;;;13.00;;
19016;SDS011;9641;51.494;6.670;2023-09-12T10:11:16;12.57;;;9.18;;
19016;SDS011;9641;51.494;6.670;2023-09-12T10:13:46;11.02;;;8.30;;
19016;SDS011;9641;51.494;6.670;2023-09-12T10:16:15;10.25;;;7.30;;
19016;SDS011;9641;51.494;6.670;2023-09-12T10:18:46;10.48;;;7.38;;
19016;SDS011;9641;51.494;6.670;2023-09-12T10:21:22;9.73;;;7.15;;
19016;SDS011;9641;51.494;6.670;2023-09-12T10:23:55;10.63;;;8.07;;
19016;SDS011;9641;51.494;6.670;2023-09-12T10:26:24;10.60;;;7.38;;
19016;SDS011;9641;51.494;6.670;2023-09-12T10:28:51;10.30;;;7.20;;
19016;SDS011;9641;51.494;6.670;2023-09-12T10:31:18;8.20;;;6.68;;
19016;SDS011;9641;51.494;6.670;2023-09-12T10:33:47;8.40;;;7.10;;
19016;SDS011;9641;51.494;6.670;2023-09-12T10:36:17;7.88;;;6.75;;
19016;SDS011;9641;51.494;6.670;2023-09-12T10:38:45;7.85;;;5.80;;
19016;SDS011;9641;51.494;6.670;2023-09-12T10:41:15;9.68;;;7.30;;
19016;SDS011;9641;51.494;6.670;2023-09-12T10:43:43;8.68;;;7.55;;
19016;SDS011;9641;51.494;6.670;2023-09-12T10:46:15;8.60;;;7.10;;
19016;SDS011;9641;51.494;6.670;2023-09-12T10:48:42;10.10;;;7.63;;
19016;SDS011;9641;51.494;6.670;2023-09-12T10:51:11;9.05;;;7.55;;
19016;SDS011;9641;51.494;6.670;2023-09-12T10:53:44;9.93;;;8.40;;
19016;SDS011;9641;51.494;6.670;2023-09-12T10:56:14;9.02;;;7.90;;
19016;SDS011;9641;51.494;6.670;2023-09-12T11:01:40;9.85;;;7.18;;
19016;SDS011;9641;51.494;6.670;2023-09-12T11:04:29;8.50;;;7.32;;
19016;SDS011;9641;51.494;6.670;2023-09-12T11:07:01;9.57;;;6.78;;
19016;SDS011;9641;51.494;6.670;2023-09-12T11:10:20;9.80;;;7.03;;
19016;SDS011;9641;51.494;6.670;2023-09-12T11:12:49;9.73;;;7.38;;
19016;SDS011;9641;51.494;6.670;2023-09-12T11:15:16;8.77;;;6.68;;
19016;SDS011;9641;51.494;6.670;2023-09-12T11:17:44;9.13;;;6.65;;
19016;SDS011;9641;51.494;6.670;2023-09-12T11:20:12;10.63;;;8.70;;
19016;SDS011;9641;51.494;6.670;2023-09-12T11:22:41;9.90;;;7.03;;
19016;SDS011;9641;51.494;6.670;2023-09-12T11:25:16;12.02;;;9.35;;
19016;SDS011;9641;51.494;6.670;2023-09-12T11:27:45;12.88;;;8.65;;
19016;SDS011;9641;51.494;6.670;2023-09-12T11:30:27;16.60;;;12.43;;
19016;SDS011;9641;51.494;6.670;2023-09-12T11:32:56;16.55;;;13.52;;
19016;SDS011;9641;51.494;6.670;2023-09-12T11:35:24;13.23;;;10.98;;
19016;SDS011;9641;51.494;6.670;2023-09-12T11:37:54;20.55;;;12.77;;
19016;SDS011;9641;51.494;6.670;2023-09-12T11:40:23;17.50;;;13.68;;
19016;SDS011;9641;51.494;6.670;2023-09-12T11:42:50;13.82;;;11.88;;
19016;SDS011;9641;51.494;6.670;2023-09-12T11:45:18;15.85;;;12.27;;
19016;SDS011;9641;51.494;6.670;2023-09-12T11:47:46;15.95;;;12.23;;
19016;SDS011;9641;51.494;6.670;2023-09-12T11:50:27;15.13;;;10.30;;
19016;SDS011;9641;51.494;6.670;2023-09-12T11:53:00;14.27;;;11.40;;
19016;SDS011;9641;51.494;6.670;2023-09-12T11:55:30;12.50;;;10.13;;
19016;SDS011;9641;51.494;6.670;2023-09-12T11:57:58;12.30;;;9.00;;
19016;SDS011;9641;51.494;6.670;2023-09-12T12:00:25;12.23;;;9.88;;
19016;SDS011;9641;51.494;6.670;2023-09-12T12:02:52;11.02;;;9.10;;
19016;SDS011;9641;51.494;6.670;2023-09-12T12:05:20;11.85;;;10.57;;
19016;SDS011;9641;51.494;6.670;2023-09-12T12:07:48;9.13;;;7.70;;
19016;SDS011;9641;51.494;6.670;2023-09-12T12:10:16;11.38;;;9.02;;
19016;SDS011;9641;51.494;6.670;2023-09-12T12:12:43;8.85;;;7.50;;
19016;SDS011;9641;51.494;6.670;2023-09-12T12:15:12;11.70;;;8.90;;
19016;SDS011;9641;51.494;6.670;2023-09-12T12:17:42;10.40;;;7.50;;
19016;SDS011;9641;51.494;6.670;2023-09-12T12:20:10;7.28;;;6.20;;
19016;SDS011;9641;51.494;6.670;2023-09-12T12:22:37;9.73;;;7.95;;
19016;SDS011;9641;51.494;6.670;2023-09-12T12:25:08;9.32;;;8.32;;
19016;SDS011;9641;51.494;6.670;2023-09-12T12:27:38;10.48;;;7.90;;
19016;SDS011;9641;51.494;6.670;2023-09-12T12:30:06;10.23;;;7.72;;
19016;SDS011;9641;51.494;6.670;2023-09-12T12:32:35;8.85;;;8.00;;
19016;SDS011;9641;51.494;6.670;2023-09-12T12:35:06;7.90;;;7.10;;
19016;SDS011;9641;51.494;6.670;2023-09-12T12:37:33;7.90;;;7.07;;
19016;SDS011;9641;51.494;6.670;2023-09-12T12:40:01;9.02;;;7.40;;
19016;SDS011;9641;51.494;6.670;2023-09-12T12:42:33;12.15;;;8.73;;
19016;SDS011;9641;51.494;6.670;2023-09-12T12:45:05;8.38;;;7.43;;
19016;SDS011;9641;51.494;6.670;2023-09-12T12:47:37;10.27;;;6.85;;
19016;SDS011;9641;51.494;6.670;2023-09-12T12:50:07;8.38;;;6.05;;
19016;SDS011;9641;51.494;6.670;2023-09-12T12:52:36;7.90;;;6.00;;
19016;SDS011;9641;51.494;6.670;2023-09-12T12:55:04;8.75;;;5.78;;
19016;SDS011;9641;51.494;6.670;2023-09-12T12:57:31;7.15;;;4.95;;
19016;SDS011;9641;51.494;6.670;2023-09-12T12:59:58;6.60;;;6.00;;
19016;SDS011;9641;51.494;6.670;2023-09-12T13:02:27;9.23;;;6.45;;
19016;SDS011;9641;51.494;6.670;2023-09-12T13:04:54;6.65;;;5.72;;
19016;SDS011;9641;51.494;6.670;2023-09-12T13:07:21;6.68;;;5.18;;
19016;SDS011;9641;51.494;6.670;2023-09-12T13:09:47;10.05;;;7.97;;
19016;SDS011;9641;51.494;6.670;2023-09-12T13:12:14;10.85;;;7.85;;
19016;SDS011;9641;51.494;6.670;2023-09-12T13:14:42;8.40;;;7.22;;
19016;SDS011;9641;51.494;6.670;2023-09-12T13:17:09;8.23;;;7.00;;
19016;SDS011;9641;51.494;6.670;2023-09-12T13:19:38;8.27;;;5.75;;
19016;SDS011;9641;51.494;6.670;2023-09-12T13:22:05;6.90;;;5.88;;
19016;SDS011;9641;51.494;6.670;2023-09-12T13:24:31;6.57;;;5.68;;
19016;SDS011;9641;51.494;6.670;2023-09-12T13:26:58;8.05;;;6.07;;
19016;SDS011;9641;51.494;6.670;2023-09-12T13:29:25;5.50;;;5.00;;
19016;SDS011;9641;51.494;6.670;2023-09-12T13:31:52;8.77;;;6.28;;
19016;SDS011;9641;51.494;6.670;2023-09-12T13:34:18;5.65;;;4.45;;
19016;SDS011;9641;51.494;6.670;2023-09-12T13:36:47;4.97;;;4.45;;
19016;SDS011;9641;51.494;6.670;2023-09-12T13:39:13;8.00;;;5.38;;
19016;SDS011;9641;51.494;6.670;2023-09-12T13:41:42;5.80;;;5.05;;
19016;SDS011;9641;51.494;6.670;2023-09-12T13:44:10;5.65;;;4.97;;
19016;SDS011;9641;51.494;6.670;2023-09-12T13:46:37;7.32;;;5.30;;
19016;SDS011;9641;51.494;6.670;2023-09-12T13:49:04;6.97;;;5.05;;
19016;SDS011;9641;51.494;6.670;2023-09-12T13:51:31;6.60;;;4.10;;
19016;SDS011;9641;51.494;6.670;2023-09-12T13:53:59;6.18;;;5.18;;
19016;SDS011;9641;51.494;6.670;2023-09-12T13:56:26;8.82;;;5.13;;
19016;SDS011;9641;51.494;6.670;2023-09-12T13:58:53;6.53;;;5.22;;
19016;SDS011;9641;51.494;6.670;2023-09-12T14:01:20;7.25;;;3.83;;
19016;SDS011;9641;51.494;6.670;2023-09-12T14:03:48;4.50;;;4.10;;
19016;SDS011;9641;51.494;6.670;2023-09-12T14:06:15;4.97;;;3.95;;
19016;SDS011;9641;51.494;6.670;2023-09-12T14:08:41;4.07;;;3.67;;
19016;SDS011;9641;51.494;6.670;2023-09-12T14:11:10;6.43;;;4.35;;
19016;SDS011;9641;51.494;6.670;2023-09-12T14:13:36;6.05;;;4.60;;
19016;SDS011;9641;51.494;6.670;2023-09-12T14:16:03;5.30;;;4.10;;
19016;SDS011;9641;51.494;6.670;2023-09-12T14:18:30;4.88;;;3.63;;
19016;SDS011;9641;51.494;6.670;2023-09-12T14:20:57;5.90;;;4.20;;
19016;SDS011;9641;51.494;6.670;2023-09-12T14:23:24;4.82;;;3.80;;
19016;SDS011;9641;51.494;6.670;2023-09-12T14:25:51;6.22;;;4.38;;
19016;SDS011;9641;51.494;6.670;2023-09-12T14:28:19;4.53;;;4.03;;
19016;SDS011;9641;51.494;6.670;2023-09-12T14:30:46;6.75;;;3.47;;
19016;SDS011;9641;51.494;6.670;2023-09-12T14:33:15;4.88;;;4.35;;
19016;SDS011;9641;51.494;6.670;2023-09-12T14:35:44;5.90;;;5.30;;
19016;SDS011;9641;51.494;6.670;2023-09-12T14:38:11;8.68;;;5.97;;
19016;SDS011;9641;51.494;6.670;2023-09-12T14:40:38;5.78;;;5.28;;
19016;SDS011;9641;51.494;6.670;2023-09-12T14:43:05;5.53;;;4.88;;
19016;SDS011;9641;51.494;6.670;2023-09-12T14:45:34;6.30;;;4.47;;
19016;SDS011;9641;51.494;6.670;2023-09-12T14:48:00;4.95;;;4.20;;
19016;SDS011;9641;51.494;6.670;2023-09-12T14:50:27;4.80;;;4.15;;
19016;SDS011;9641;51.494;6.670;2023-09-12T14:52:55;6.15;;;3.78;;
19016;SDS011;9641;51.494;6.670;2023-09-12T14:55:22;4.60;;;2.90;;